createdAt,value
2023-02-19T00:00:01.425Z,9.34
2023-02-19T00:00:48.233Z,9.17
2023-02-19T00:01:46.228Z,9.20
2023-02-19T00:02:33.076Z,9.08
2023-02-19T00:03:19.939Z,9.08
2023-02-19T00:04:09.965Z,9.02
2023-02-19T00:04:56.782Z,8.92
2023-02-19T00:05:43.616Z,8.94
2023-02-19T00:06:31.714Z,8.90
2023-02-19T00:07:18.545Z,8.97
2023-02-19T00:08:05.361Z,8.99
2023-02-19T00:08:52.393Z,8.90
2023-02-19T00:09:39.194Z,8.89
2023-02-19T00:10:26.034Z,8.88
2023-02-19T00:11:15.946Z,8.96
2023-02-19T00:12:02.785Z,8.92
2023-02-19T00:12:49.596Z,8.92
2023-02-19T00:13:38.007Z,9.05
2023-02-19T00:14:24.792Z,9.03
2023-02-19T00:15:11.623Z,9.06
2023-02-19T00:15:58.499Z,9.11
2023-02-19T00:16:45.498Z,9.06
2023-02-19T00:17:32.494Z,9.09
2023-02-19T00:18:19.375Z,9.11
2023-02-19T00:19:08.691Z,9.02
2023-02-19T00:19:55.504Z,9.06
2023-02-19T00:20:42.323Z,8.97
2023-02-19T00:21:29.904Z,8.95
2023-02-19T00:22:16.714Z,8.86
2023-02-19T00:23:03.574Z,8.83
2023-02-19T00:23:52.014Z,8.72
2023-02-19T00:24:38.970Z,8.59
2023-02-19T00:25:25.861Z,8.79
2023-02-19T00:26:18.633Z,8.96
2023-02-19T00:27:05.758Z,8.99
2023-02-19T00:27:52.575Z,9.07
2023-02-19T00:28:39.810Z,9.03
2023-02-19T00:29:26.670Z,9.09
2023-02-19T00:30:13.730Z,9.21
2023-02-19T00:31:13.818Z,9.24
2023-02-19T00:32:00.927Z,9.31
2023-02-19T00:32:51.485Z,9.49
2023-02-19T00:33:38.318Z,9.60
2023-02-19T00:34:25.193Z,9.58
2023-02-19T00:35:12.076Z,9.68
2023-02-19T00:36:03.246Z,9.83
2023-02-19T00:36:50.076Z,9.89
2023-02-19T00:37:36.920Z,9.93
2023-02-19T00:38:23.718Z,9.95
2023-02-19T00:39:14.295Z,9.99
2023-02-19T00:40:00.977Z,10.01
2023-02-19T00:40:47.828Z,10.07
2023-02-19T00:41:34.814Z,10.11
2023-02-19T00:42:21.726Z,10.10
2023-02-19T00:43:08.599Z,10.12
2023-02-19T00:44:03.149Z,10.08
2023-02-19T00:44:49.943Z,10.12
2023-02-19T00:45:36.718Z,10.22
2023-02-19T00:46:26.555Z,10.26
2023-02-19T00:47:13.509Z,10.29
2023-02-19T00:48:00.319Z,10.31
2023-02-19T00:48:47.533Z,10.30
2023-02-19T00:49:34.339Z,10.34
2023-02-19T00:50:21.428Z,10.35
2023-02-19T00:51:08.616Z,10.46
2023-02-19T00:51:55.701Z,10.52
2023-02-19T00:52:42.513Z,10.56
2023-02-19T00:53:29.298Z,10.58
2023-02-19T00:54:16.641Z,10.55
2023-02-19T00:55:04.117Z,10.57
2023-02-19T00:55:50.908Z,10.54
2023-02-19T00:56:37.769Z,10.50
2023-02-19T00:57:24.631Z,10.53
2023-02-19T00:58:11.484Z,10.55
2023-02-19T00:58:58.363Z,10.57
2023-02-19T00:59:45.188Z,10.62
2023-02-19T01:00:33.698Z,10.72
2023-02-19T01:01:21.175Z,10.79
2023-02-19T01:02:08.007Z,10.77
2023-02-19T01:02:54.897Z,10.74
2023-02-19T01:03:42.175Z,10.83
2023-02-19T01:04:29.089Z,10.80
2023-02-19T01:05:16.060Z,10.76
2023-02-19T01:06:04.064Z,10.77
2023-02-19T01:06:50.964Z,10.78
2023-02-19T01:07:38.385Z,10.71
2023-02-19T01:08:25.506Z,10.71
2023-02-19T01:09:12.424Z,10.63
2023-02-19T01:09:59.279Z,10.68
2023-02-19T01:10:46.665Z,10.67
2023-02-19T01:11:33.506Z,10.68
2023-02-19T01:12:20.417Z,10.63
2023-02-19T01:13:07.268Z,10.54
2023-02-19T01:13:58.646Z,10.41
2023-02-19T01:14:45.647Z,10.33
2023-02-19T01:15:35.464Z,10.20
2023-02-19T01:16:24.976Z,10.18
2023-02-19T01:17:11.816Z,10.13
2023-02-19T01:17:58.634Z,10.20
2023-02-19T01:18:46.133Z,10.20
2023-02-19T01:19:33.023Z,10.17
2023-02-19T01:20:19.934Z,10.20
2023-02-19T01:21:09.073Z,10.22
2023-02-19T01:21:56.095Z,10.20
2023-02-19T01:22:42.921Z,10.19
2023-02-19T01:23:29.802Z,10.14
2023-02-19T01:24:16.935Z,10.15
2023-02-19T01:25:03.852Z,10.08
2023-02-19T01:25:50.745Z,10.10
2023-02-19T01:26:37.660Z,10.06
2023-02-19T01:27:24.474Z,10.06
2023-02-19T01:28:11.474Z,10.01
2023-02-19T01:29:01.843Z,10.02
2023-02-19T01:29:48.662Z,10.07
2023-02-19T01:30:37.282Z,10.07
2023-02-19T01:31:25.606Z,10.05
2023-02-19T01:32:12.745Z,9.99
2023-02-19T01:32:59.602Z,9.99
2023-02-19T01:33:47.871Z,10.08
2023-02-19T01:34:34.870Z,10.09
2023-02-19T01:35:21.712Z,10.06
2023-02-19T01:36:08.932Z,10.00
2023-02-19T01:36:55.842Z,10.03
2023-02-19T01:37:42.713Z,9.96
2023-02-19T01:38:29.531Z,9.98
2023-02-19T01:39:16.434Z,10.16
2023-02-19T01:40:03.572Z,10.15
2023-02-19T01:40:59.870Z,10.08
2023-02-19T01:41:46.714Z,10.11
2023-02-19T01:42:33.562Z,10.14
2023-02-19T01:43:20.403Z,10.06
2023-02-19T01:44:28.995Z,10.03
2023-02-19T01:45:26.289Z,10.08
2023-02-19T01:46:13.123Z,10.16
2023-02-19T01:46:59.995Z,10.13
2023-02-19T01:47:48.234Z,10.12
2023-02-19T01:48:37.933Z,10.14
2023-02-19T01:49:28.290Z,10.12
2023-02-19T01:50:15.233Z,10.18
2023-02-19T01:51:18.219Z,10.07
2023-02-19T01:52:10.525Z,9.94
2023-02-19T01:52:57.523Z,9.92
2023-02-19T01:53:47.129Z,9.89
2023-02-19T01:54:37.609Z,9.88
2023-02-19T01:55:24.731Z,9.92
2023-02-19T01:56:12.727Z,9.91
2023-02-19T01:57:00.244Z,9.90
2023-02-19T01:57:48.969Z,9.99
2023-02-19T01:58:37.007Z,10.01
2023-02-19T01:59:23.856Z,10.01
2023-02-19T02:00:13.556Z,10.05
2023-02-19T02:01:05.322Z,10.02
2023-02-19T02:01:52.286Z,10.05
2023-02-19T02:02:40.585Z,10.08
2023-02-19T02:03:27.486Z,10.12
2023-02-19T02:04:15.099Z,10.19
2023-02-19T02:05:02.471Z,10.17
2023-02-19T02:06:09.715Z,10.14
2023-02-19T02:06:57.056Z,10.16
2023-02-19T02:08:02.447Z,10.22
2023-02-19T02:09:14.115Z,10.17
2023-02-19T02:10:19.806Z,10.19
2023-02-19T02:11:06.728Z,10.30
2023-02-19T02:11:53.648Z,10.32
2023-02-19T02:12:40.517Z,10.27
2023-02-19T02:13:27.483Z,10.30
2023-02-19T02:14:15.178Z,10.31
2023-02-19T02:15:02.045Z,10.37
2023-02-19T02:16:07.751Z,10.40
2023-02-19T02:17:04.028Z,10.43
2023-02-19T02:17:57.759Z,10.45
2023-02-19T02:19:08.907Z,10.48
2023-02-19T02:20:07.268Z,10.49
2023-02-19T02:21:27.744Z,10.47
2023-02-19T02:22:21.488Z,10.43
2023-02-19T02:23:16.872Z,10.44
2023-02-19T02:24:24.711Z,10.46
2023-02-19T02:25:28.459Z,10.43
2023-02-19T02:26:33.497Z,10.51
2023-02-19T02:27:38.617Z,10.48
2023-02-19T02:28:59.038Z,10.42
2023-02-19T02:30:05.991Z,10.38
2023-02-19T02:31:05.245Z,10.40
2023-02-19T02:31:59.394Z,10.40
2023-02-19T02:32:55.198Z,10.35
2023-02-19T02:33:50.509Z,10.33
2023-02-19T02:34:45.821Z,10.31
2023-02-19T02:35:42.691Z,10.32
2023-02-19T02:36:32.132Z,10.35
2023-02-19T02:37:19.161Z,10.38
2023-02-19T02:38:08.452Z,10.36
2023-02-19T02:38:55.751Z,10.40
2023-02-19T02:39:43.268Z,10.40
2023-02-19T02:40:30.595Z,10.47
2023-02-19T02:41:17.542Z,10.43
2023-02-19T02:42:30.812Z,10.47
2023-02-19T02:43:17.777Z,10.48
2023-02-19T02:44:04.908Z,10.48
2023-02-19T02:45:10.583Z,10.46
2023-02-19T02:45:57.513Z,10.40
2023-02-19T02:46:45.630Z,10.30
2023-02-19T02:47:41.516Z,10.29
2023-02-19T02:48:41.418Z,10.29
2023-02-19T02:49:28.333Z,10.28
2023-02-19T02:50:28.160Z,10.27
2023-02-19T02:51:23.849Z,10.33
2023-02-19T02:52:30.728Z,10.26
2023-02-19T02:53:44.681Z,10.20
2023-02-19T02:54:52.400Z,10.17
2023-02-19T02:55:43.989Z,10.25
2023-02-19T02:56:31.369Z,10.22
2023-02-19T02:57:19.214Z,10.18
2023-02-19T02:58:06.588Z,10.20
2023-02-19T02:58:54.720Z,10.20
2023-02-19T02:59:42.722Z,10.21
2023-02-19T03:00:50.135Z,10.18
2023-02-19T03:01:57.186Z,10.14
2023-02-19T03:02:44.205Z,10.15
2023-02-19T03:03:32.778Z,10.00
2023-02-19T03:05:09.230Z,9.96
2023-02-19T03:06:01.329Z,9.96
2023-02-19T03:06:49.471Z,9.98
2023-02-19T03:07:40.038Z,9.98
2023-02-19T03:08:32.870Z,9.92
2023-02-19T03:09:30.466Z,9.91
2023-02-19T03:10:21.137Z,9.87
2023-02-19T03:11:27.679Z,9.97
2023-02-19T03:12:34.413Z,9.99
2023-02-19T03:13:53.008Z,9.89
2023-02-19T03:15:03.025Z,9.82
2023-02-19T03:16:14.073Z,9.81
2023-02-19T03:17:25.091Z,9.80
2023-02-19T03:18:31.268Z,9.78
2023-02-19T03:19:19.995Z,9.73
2023-02-19T03:20:11.423Z,9.75
2023-02-19T03:20:59.586Z,9.70
2023-02-19T03:22:01.406Z,9.75
2023-02-19T03:22:49.610Z,9.82
2023-02-19T03:23:55.758Z,9.83
2023-02-19T03:25:06.487Z,9.81
2023-02-19T03:26:05.614Z,9.87
2023-02-19T03:26:54.281Z,9.89
2023-02-19T03:27:43.114Z,9.89
2023-02-19T03:28:51.774Z,9.97
2023-02-19T03:29:40.364Z,10.05
2023-02-19T03:30:33.628Z,10.10
2023-02-19T03:31:23.021Z,10.19
2023-02-19T03:32:17.970Z,10.26
2023-02-19T03:33:09.589Z,10.28
2023-02-19T03:34:02.436Z,10.30
2023-02-19T03:34:54.675Z,10.35
2023-02-19T03:35:57.845Z,10.37
2023-02-19T03:36:51.334Z,10.45
2023-02-19T03:37:43.493Z,10.44
2023-02-19T03:38:52.224Z,10.43
2023-02-19T03:39:44.622Z,10.42
2023-02-19T03:40:35.454Z,10.41
2023-02-19T03:41:41.582Z,10.39
2023-02-19T03:43:05.674Z,10.35
2023-02-19T03:44:03.686Z,10.34
2023-02-19T03:45:09.184Z,10.33
2023-02-19T03:46:14.364Z,10.38
2023-02-19T03:47:23.215Z,10.37
2023-02-19T03:48:30.996Z,10.32
2023-02-19T03:49:17.905Z,10.28
2023-02-19T03:50:10.775Z,10.27
2023-02-19T03:51:17.846Z,10.32
2023-02-19T03:52:26.553Z,10.33
2023-02-19T03:53:34.804Z,10.35
2023-02-19T03:54:21.678Z,10.35
2023-02-19T03:55:11.652Z,10.43
2023-02-19T03:56:23.935Z,10.47
2023-02-19T03:57:18.529Z,10.48
2023-02-19T03:58:10.607Z,10.50
2023-02-19T03:59:10.208Z,10.47
2023-02-19T04:00:10.444Z,10.53
2023-02-19T04:01:06.772Z,10.59
2023-02-19T04:02:11.936Z,10.57
2023-02-19T04:03:20.400Z,10.65
2023-02-19T04:04:23.839Z,10.62
2023-02-19T04:05:15.237Z,10.55
2023-02-19T04:06:04.129Z,10.53
2023-02-19T04:06:54.822Z,10.53
2023-02-19T04:07:42.907Z,10.54
2023-02-19T04:08:30.480Z,10.57
2023-02-19T04:09:17.871Z,10.55
2023-02-19T04:10:06.450Z,10.53
2023-02-19T04:10:54.419Z,10.53
2023-02-19T04:11:41.547Z,10.55
2023-02-19T04:12:28.915Z,10.59
2023-02-19T04:13:30.208Z,10.52
2023-02-19T04:14:23.121Z,10.48
2023-02-19T04:15:16.639Z,10.42
2023-02-19T04:16:08.167Z,10.36
2023-02-19T04:17:00.223Z,10.41
2023-02-19T04:17:59.494Z,10.36
2023-02-19T04:18:48.401Z,10.35
2023-02-19T04:19:38.062Z,10.43
2023-02-19T04:20:28.073Z,10.42
2023-02-19T04:21:15.081Z,10.42
2023-02-19T04:22:02.390Z,10.39
2023-02-19T04:22:49.549Z,10.31
2023-02-19T04:23:41.221Z,10.34
2023-02-19T04:24:32.593Z,10.37
2023-02-19T04:25:20.032Z,10.38
2023-02-19T04:26:08.276Z,10.45
2023-02-19T04:26:56.109Z,10.46
2023-02-19T04:27:45.176Z,10.37
2023-02-19T04:28:32.070Z,10.26
2023-02-19T04:29:18.968Z,10.24
2023-02-19T04:30:07.454Z,10.25
2023-02-19T04:30:54.504Z,10.28
2023-02-19T04:31:41.458Z,10.29
2023-02-19T04:32:28.437Z,10.34
2023-02-19T04:33:15.364Z,10.32
2023-02-19T04:34:04.063Z,10.36
2023-02-19T04:34:52.296Z,10.35
2023-02-19T04:35:41.018Z,10.43
2023-02-19T04:36:27.957Z,10.40
2023-02-19T04:37:14.947Z,10.36
2023-02-19T04:38:02.007Z,10.35
2023-02-19T04:38:48.896Z,10.37
2023-02-19T04:39:35.859Z,10.33
2023-02-19T04:40:22.756Z,10.35
2023-02-19T04:41:10.239Z,10.33
2023-02-19T04:41:57.313Z,10.39
2023-02-19T04:42:44.224Z,10.40
2023-02-19T04:43:31.136Z,10.37
2023-02-19T04:44:18.051Z,10.30
2023-02-19T04:45:05.207Z,10.32
2023-02-19T04:45:52.155Z,10.31
2023-02-19T04:46:43.027Z,10.31
2023-02-19T04:47:32.179Z,10.35
2023-02-19T04:48:19.075Z,10.38
2023-02-19T04:49:06.013Z,10.37
2023-02-19T04:49:52.916Z,10.36
2023-02-19T04:50:40.578Z,10.40
2023-02-19T04:51:27.634Z,10.43
2023-02-19T04:52:14.613Z,10.42
2023-02-19T04:53:01.556Z,10.37
2023-02-19T04:53:48.474Z,10.36
2023-02-19T04:54:35.450Z,10.38
2023-02-19T04:55:22.355Z,10.44
2023-02-19T04:56:11.773Z,10.48
2023-02-19T04:56:58.655Z,10.62
2023-02-19T04:57:45.612Z,10.73
2023-02-19T04:58:32.481Z,10.88
2023-02-19T04:59:19.394Z,10.94
2023-02-19T05:00:08.258Z,10.91
2023-02-19T05:00:55.152Z,11.09
2023-02-19T05:01:42.085Z,11.14
2023-02-19T05:02:29.032Z,11.19
2023-02-19T05:03:16.134Z,11.09
2023-02-19T05:04:03.419Z,11.12
2023-02-19T05:04:50.359Z,11.26
2023-02-19T05:05:37.282Z,11.22
2023-02-19T05:06:24.175Z,11.22
2023-02-19T05:07:11.089Z,11.17
2023-02-19T05:07:57.945Z,11.21
2023-02-19T05:08:45.130Z,11.29
2023-02-19T05:09:32.085Z,11.36
2023-02-19T05:10:19.070Z,11.28
2023-02-19T05:11:07.836Z,11.34
2023-02-19T05:11:54.845Z,11.27
2023-02-19T05:12:41.784Z,11.18
2023-02-19T05:13:29.225Z,11.14
2023-02-19T05:14:17.410Z,11.08
2023-02-19T05:15:04.590Z,11.02
2023-02-19T05:15:59.227Z,11.12
2023-02-19T05:16:46.383Z,11.07
2023-02-19T05:17:34.694Z,11.10
2023-02-19T05:18:21.645Z,11.09
2023-02-19T05:19:11.730Z,10.95
2023-02-19T05:19:58.636Z,10.95
2023-02-19T05:20:45.552Z,10.88
2023-02-19T05:21:32.574Z,10.93
2023-02-19T05:22:19.623Z,10.95
2023-02-19T05:23:06.533Z,10.94
2023-02-19T05:23:53.445Z,10.91
2023-02-19T05:24:40.452Z,10.89
2023-02-19T05:25:27.504Z,10.85
2023-02-19T05:26:23.628Z,10.81
2023-02-19T05:27:10.642Z,10.83
2023-02-19T05:28:17.239Z,10.83
2023-02-19T05:29:04.362Z,10.80
2023-02-19T05:29:51.312Z,10.83
2023-02-19T05:30:38.290Z,10.86
2023-02-19T05:31:25.384Z,10.76
2023-02-19T05:32:12.444Z,10.81
2023-02-19T05:32:59.425Z,10.87
2023-02-19T05:33:50.436Z,10.82
2023-02-19T05:34:37.386Z,10.86
2023-02-19T05:35:24.338Z,10.77
2023-02-19T05:36:13.245Z,10.75
2023-02-19T05:37:00.217Z,10.79
2023-02-19T05:37:47.206Z,10.76
2023-02-19T05:38:34.314Z,10.75
2023-02-19T05:39:21.343Z,10.76
2023-02-19T05:40:08.616Z,10.80
2023-02-19T05:40:55.467Z,10.82
2023-02-19T05:41:42.447Z,10.81
2023-02-19T05:42:29.428Z,10.87
2023-02-19T05:43:16.628Z,10.90
2023-02-19T05:44:03.570Z,10.86
2023-02-19T05:44:50.523Z,10.82
2023-02-19T05:45:37.487Z,10.74
2023-02-19T05:46:27.603Z,10.80
2023-02-19T05:47:14.639Z,10.72
2023-02-19T05:48:01.743Z,10.72
2023-02-19T05:48:49.738Z,10.69
2023-02-19T05:49:36.699Z,10.59
2023-02-19T05:50:23.917Z,10.62
2023-02-19T05:51:16.021Z,10.60
2023-02-19T05:52:03.107Z,10.73
2023-02-19T05:52:50.093Z,10.69
2023-02-19T05:53:37.439Z,10.67
2023-02-19T05:54:24.466Z,10.70
2023-02-19T05:55:12.093Z,10.69
2023-02-19T05:55:59.587Z,10.70
2023-02-19T05:56:46.700Z,10.72
2023-02-19T05:57:33.659Z,10.54
2023-02-19T05:58:20.583Z,10.33
2023-02-19T05:59:21.686Z,10.38
2023-02-19T06:00:11.221Z,10.22
2023-02-19T06:00:58.233Z,9.95
2023-02-19T06:01:45.606Z,9.98
2023-02-19T06:02:32.524Z,9.81
2023-02-19T06:03:19.577Z,9.74
2023-02-19T06:04:06.782Z,9.71
2023-02-19T06:04:53.899Z,9.44
2023-02-19T06:05:40.924Z,9.35
2023-02-19T06:06:27.981Z,9.47
2023-02-19T06:07:14.924Z,9.40
2023-02-19T06:08:01.823Z,9.43
2023-02-19T06:08:50.483Z,9.42
2023-02-19T06:09:37.500Z,9.49
2023-02-19T06:10:24.501Z,9.25
2023-02-19T06:11:11.713Z,9.10
2023-02-19T06:11:58.862Z,8.98
2023-02-19T06:12:45.810Z,8.79
2023-02-19T06:13:32.670Z,8.70
2023-02-19T06:14:19.620Z,8.53
2023-02-19T06:15:07.003Z,8.48
2023-02-19T06:15:53.980Z,8.54
2023-02-19T06:16:41.188Z,8.51
2023-02-19T06:17:28.114Z,8.55
2023-02-19T06:18:15.041Z,8.44
2023-02-19T06:19:05.393Z,8.55
2023-02-19T06:19:52.335Z,8.44
2023-02-19T06:20:39.347Z,8.39
2023-02-19T06:21:26.250Z,8.51
2023-02-19T06:22:15.211Z,8.53
2023-02-19T06:23:02.148Z,8.51
2023-02-19T06:23:49.124Z,8.42
2023-02-19T06:24:37.799Z,8.34
2023-02-19T06:25:24.721Z,8.35
2023-02-19T06:26:18.368Z,8.37
2023-02-19T06:27:09.550Z,8.43
2023-02-19T06:27:56.531Z,8.32
2023-02-19T06:28:43.817Z,8.30
2023-02-19T06:29:32.762Z,8.45
2023-02-19T06:30:19.832Z,8.34
2023-02-19T06:31:07.422Z,8.40
2023-02-19T06:31:54.514Z,8.29
2023-02-19T06:32:41.525Z,8.29
2023-02-19T06:33:28.714Z,8.20
2023-02-19T06:34:15.644Z,8.33
2023-02-19T06:35:02.755Z,8.36
2023-02-19T06:35:49.674Z,8.31
2023-02-19T06:36:36.575Z,8.29
2023-02-19T06:37:23.511Z,8.14
2023-02-19T06:38:10.387Z,8.24
2023-02-19T06:39:00.445Z,8.29
2023-02-19T06:39:47.422Z,8.36
2023-02-19T06:40:34.296Z,8.38
2023-02-19T06:41:21.173Z,8.33
2023-02-19T06:42:08.048Z,8.23
2023-02-19T06:42:55.008Z,8.33
2023-02-19T06:43:42.456Z,8.33
2023-02-19T06:44:29.481Z,8.30
2023-02-19T06:45:16.532Z,8.28
2023-02-19T06:46:05.491Z,8.25
2023-02-19T06:46:55.567Z,8.21
2023-02-19T06:47:42.709Z,8.14
2023-02-19T06:48:30.794Z,8.07
2023-02-19T06:49:18.081Z,8.14
2023-02-19T06:50:05.256Z,8.23
2023-02-19T06:50:52.230Z,8.25
2023-02-19T06:51:39.357Z,8.28
2023-02-19T06:52:27.345Z,8.29
2023-02-19T06:53:14.336Z,8.32
2023-02-19T06:54:04.682Z,8.21
2023-02-19T06:54:51.606Z,8.18
2023-02-19T06:55:40.637Z,8.30
2023-02-19T06:56:28.978Z,8.33
2023-02-19T06:57:15.996Z,8.37
2023-02-19T06:58:02.832Z,8.36
2023-02-19T06:58:49.701Z,8.41
2023-02-19T06:59:36.645Z,8.45
2023-02-19T07:00:23.659Z,8.43
2023-02-19T07:01:12.470Z,8.45
2023-02-19T07:01:59.635Z,8.27
2023-02-19T07:02:46.537Z,8.18
2023-02-19T07:03:33.495Z,8.20
2023-02-19T07:04:20.504Z,8.22
2023-02-19T07:05:07.716Z,8.18
2023-02-19T07:05:54.702Z,8.27
2023-02-19T07:06:41.749Z,8.34
2023-02-19T07:07:28.638Z,8.39
2023-02-19T07:08:17.569Z,8.41
2023-02-19T07:09:05.803Z,8.48
2023-02-19T07:09:52.855Z,8.45
2023-02-19T07:10:40.001Z,8.50
2023-02-19T07:11:30.364Z,8.39
2023-02-19T07:12:17.265Z,8.37
2023-02-19T07:13:04.254Z,8.47
2023-02-19T07:14:01.122Z,8.44
2023-02-19T07:14:48.475Z,8.22
2023-02-19T07:15:35.395Z,8.07
2023-02-19T07:16:22.640Z,8.23
2023-02-19T07:17:09.581Z,8.41
2023-02-19T07:17:56.516Z,8.45
2023-02-19T07:18:43.530Z,8.50
2023-02-19T07:19:30.482Z,8.41
2023-02-19T07:20:17.486Z,8.38
2023-02-19T07:21:05.283Z,8.35
2023-02-19T07:21:52.271Z,8.36
2023-02-19T07:22:39.205Z,8.27
2023-02-19T07:23:26.115Z,8.07
2023-02-19T07:24:13.158Z,8.08
2023-02-19T07:25:00.010Z,8.21
2023-02-19T07:25:46.918Z,8.24
2023-02-19T07:26:33.816Z,8.19
2023-02-19T07:27:20.778Z,8.20
2023-02-19T07:28:07.893Z,8.24
2023-02-19T07:28:54.792Z,8.30
2023-02-19T07:29:41.743Z,8.14
2023-02-19T07:30:28.735Z,8.09
2023-02-19T07:31:16.486Z,7.93
2023-02-19T07:32:03.637Z,7.80
2023-02-19T07:32:50.599Z,7.95
2023-02-19T07:33:37.756Z,8.10
2023-02-19T07:34:24.720Z,7.99
2023-02-19T07:35:11.860Z,8.05
2023-02-19T07:35:58.903Z,8.04
2023-02-19T07:36:45.832Z,7.88
2023-02-19T07:37:32.735Z,7.82
2023-02-19T07:38:21.143Z,7.90
2023-02-19T07:39:10.057Z,7.95
2023-02-19T07:39:57.121Z,8.01
2023-02-19T07:40:57.452Z,7.99
2023-02-19T07:41:44.384Z,8.01
2023-02-19T07:42:31.271Z,7.85
2023-02-19T07:43:18.515Z,7.82
2023-02-19T07:44:05.767Z,7.88
2023-02-19T07:44:52.618Z,7.94
2023-02-19T07:45:39.570Z,7.75
2023-02-19T07:46:26.736Z,7.83
2023-02-19T07:47:13.614Z,7.85
2023-02-19T07:48:00.484Z,7.80
2023-02-19T07:48:47.433Z,7.67
2023-02-19T07:49:34.514Z,7.74
2023-02-19T07:50:21.424Z,7.78
2023-02-19T07:51:12.475Z,7.89
2023-02-19T07:51:59.654Z,7.83
2023-02-19T07:52:46.575Z,7.76
2023-02-19T07:53:34.806Z,7.71
2023-02-19T07:54:21.747Z,7.68
2023-02-19T07:55:08.696Z,7.80
2023-02-19T07:56:00.258Z,7.95
2023-02-19T07:56:47.207Z,7.87
2023-02-19T07:57:34.106Z,7.84
2023-02-19T07:58:21.093Z,7.77
2023-02-19T07:59:08.116Z,7.90
2023-02-19T07:59:55.115Z,7.76
2023-02-19T08:00:42.213Z,7.75
2023-02-19T08:02:07.225Z,7.77
2023-02-19T08:03:00.215Z,7.81
2023-02-19T08:03:50.342Z,7.94
2023-02-19T08:04:37.489Z,8.04
2023-02-19T08:05:24.588Z,8.07
2023-02-19T08:06:12.698Z,8.18
2023-02-19T08:06:59.656Z,8.20
2023-02-19T08:07:46.618Z,8.13
2023-02-19T08:08:33.653Z,8.12
2023-02-19T08:09:20.557Z,8.06
2023-02-19T08:10:26.860Z,8.08
2023-02-19T08:11:32.142Z,7.85
2023-02-19T08:12:37.697Z,7.88
2023-02-19T08:13:25.826Z,8.02
2023-02-19T08:14:12.739Z,8.06
2023-02-19T08:14:59.634Z,8.10
2023-02-19T08:15:47.428Z,7.97
2023-02-19T08:16:42.916Z,8.03
2023-02-19T08:17:31.422Z,7.97
2023-02-19T08:18:20.169Z,8.06
2023-02-19T08:19:07.064Z,8.00
2023-02-19T08:19:53.957Z,7.97
2023-02-19T08:20:41.063Z,7.85
2023-02-19T08:21:28.072Z,7.67
2023-02-19T08:22:16.493Z,7.75
2023-02-19T08:23:03.367Z,7.74
2023-02-19T08:23:51.254Z,7.89
2023-02-19T08:24:43.097Z,8.02
2023-02-19T08:25:30.366Z,8.07
2023-02-19T08:26:17.296Z,8.08
2023-02-19T08:27:04.358Z,8.02
2023-02-19T08:27:51.315Z,7.95
2023-02-19T08:28:38.267Z,7.66
2023-02-19T08:29:25.287Z,7.64
2023-02-19T08:30:12.492Z,7.74
2023-02-19T08:31:06.172Z,7.70
2023-02-19T08:31:53.182Z,7.85
2023-02-19T08:32:40.135Z,7.91
2023-02-19T08:33:27.103Z,7.92
2023-02-19T08:34:14.013Z,7.96
2023-02-19T08:35:00.906Z,7.97
2023-02-19T08:35:48.026Z,8.00
2023-02-19T08:36:34.926Z,7.88
2023-02-19T08:37:21.918Z,7.75
2023-02-19T08:38:09.784Z,7.50
2023-02-19T08:38:56.781Z,7.41
2023-02-19T08:39:43.713Z,7.43
2023-02-19T08:40:30.825Z,7.60
2023-02-19T08:41:17.854Z,7.62
2023-02-19T08:42:04.997Z,7.62
2023-02-19T08:42:51.999Z,7.56
2023-02-19T08:43:39.607Z,7.61
2023-02-19T08:44:26.499Z,7.80
2023-02-19T08:45:13.417Z,7.71
2023-02-19T08:46:00.386Z,7.80
2023-02-19T08:46:47.391Z,7.71
2023-02-19T08:47:38.404Z,7.68
2023-02-19T08:48:25.358Z,7.76
2023-02-19T08:49:12.273Z,7.81
2023-02-19T08:49:59.235Z,7.74
2023-02-19T08:50:46.205Z,7.86
2023-02-19T08:51:33.092Z,7.96
2023-02-19T08:52:20.022Z,8.03
2023-02-19T08:53:07.351Z,8.07
2023-02-19T08:53:54.322Z,8.14
2023-02-19T08:54:41.289Z,8.12
2023-02-19T08:55:28.843Z,7.87
2023-02-19T08:56:17.685Z,7.85
2023-02-19T08:57:05.449Z,7.96
2023-02-19T08:57:52.431Z,8.04
2023-02-19T08:58:41.844Z,8.15
2023-02-19T08:59:29.629Z,8.07
2023-02-19T09:00:16.890Z,8.17
2023-02-19T09:01:08.205Z,8.22
2023-02-19T09:01:55.282Z,8.45
2023-02-19T09:02:42.293Z,8.65
2023-02-19T09:03:29.295Z,8.49
2023-02-19T09:04:16.239Z,8.41
2023-02-19T09:05:03.448Z,8.54
2023-02-19T09:05:50.350Z,8.59
2023-02-19T09:06:39.788Z,8.57
2023-02-19T09:07:27.532Z,8.55
2023-02-19T09:08:14.637Z,8.50
2023-02-19T09:09:01.488Z,8.51
2023-02-19T09:09:48.398Z,8.62
2023-02-19T09:10:35.311Z,8.32
2023-02-19T09:11:22.361Z,8.16
2023-02-19T09:12:10.912Z,8.10
2023-02-19T09:12:57.858Z,8.28
2023-02-19T09:13:45.164Z,8.41
2023-02-19T09:14:33.380Z,8.46
2023-02-19T09:15:20.370Z,8.32
2023-02-19T09:16:07.596Z,8.45
2023-02-19T09:16:54.577Z,8.57
2023-02-19T09:17:41.469Z,8.64
2023-02-19T09:18:28.429Z,8.67
2023-02-19T09:19:15.279Z,8.60
2023-02-19T09:20:02.357Z,8.54
2023-02-19T09:20:49.269Z,8.63
2023-02-19T09:21:36.371Z,8.50
2023-02-19T09:22:23.272Z,8.49
2023-02-19T09:23:10.150Z,8.70
2023-02-19T09:23:57.035Z,8.91
2023-02-19T09:24:44.643Z,9.05
2023-02-19T09:25:31.563Z,8.95
2023-02-19T09:26:18.618Z,8.95
2023-02-19T09:27:05.554Z,9.10
2023-02-19T09:27:55.971Z,9.27
2023-02-19T09:28:43.367Z,9.24
2023-02-19T09:29:31.216Z,9.32
2023-02-19T09:30:18.277Z,9.49
2023-02-19T09:31:11.520Z,9.66
2023-02-19T09:32:00.236Z,9.87
2023-02-19T09:32:47.243Z,9.86
2023-02-19T09:33:34.334Z,9.93
2023-02-19T09:34:21.259Z,10.15
2023-02-19T09:35:08.249Z,10.35
2023-02-19T09:35:55.173Z,10.60
2023-02-19T09:36:42.191Z,10.64
2023-02-19T09:37:29.644Z,10.74
2023-02-19T09:38:16.583Z,10.80
2023-02-19T09:39:06.744Z,10.91
2023-02-19T09:39:54.578Z,10.93
2023-02-19T09:40:41.564Z,10.76
2023-02-19T09:41:34.032Z,10.83
2023-02-19T09:42:30.479Z,10.89
2023-02-19T09:43:21.463Z,10.80
2023-02-19T09:44:11.258Z,10.77
2023-02-19T09:44:59.946Z,10.75
2023-02-19T09:45:47.745Z,10.74
2023-02-19T09:46:44.844Z,10.84
2023-02-19T09:47:33.836Z,11.00
2023-02-19T09:48:20.877Z,11.03
2023-02-19T09:49:28.806Z,10.93
2023-02-19T09:50:19.395Z,11.01
2023-02-19T09:51:06.222Z,10.73
2023-02-19T09:52:01.577Z,10.90
2023-02-19T09:52:57.720Z,10.82
2023-02-19T09:53:47.838Z,10.90
2023-02-19T09:54:37.132Z,11.04
2023-02-19T09:55:36.931Z,11.01
2023-02-19T09:56:25.844Z,10.86
2023-02-19T09:57:16.740Z,10.89
2023-02-19T09:58:25.984Z,10.93
2023-02-19T09:59:22.727Z,11.15
2023-02-19T10:00:12.745Z,11.30
2023-02-19T10:01:02.756Z,11.37
2023-02-19T10:01:56.341Z,11.39
2023-02-19T10:02:43.548Z,11.18
2023-02-19T10:03:38.711Z,11.24
2023-02-19T10:04:25.925Z,11.36
2023-02-19T10:05:16.857Z,11.32
2023-02-19T10:06:11.251Z,11.35
2023-02-19T10:07:03.703Z,11.29
2023-02-19T10:07:53.032Z,11.24
2023-02-19T10:08:41.429Z,11.15
2023-02-19T10:09:30.793Z,11.10
2023-02-19T10:10:35.753Z,11.12
2023-02-19T10:11:24.027Z,11.11
2023-02-19T10:12:16.860Z,11.20
2023-02-19T10:13:31.101Z,11.20
2023-02-19T10:14:26.949Z,10.95
2023-02-19T10:15:17.856Z,10.96
2023-02-19T10:16:07.627Z,11.13
2023-02-19T10:16:54.819Z,11.09
2023-02-19T10:17:42.269Z,10.92
2023-02-19T10:18:38.432Z,11.00
2023-02-19T10:19:25.598Z,11.11
2023-02-19T10:20:17.677Z,11.24
2023-02-19T10:21:04.878Z,11.34
2023-02-19T10:21:51.928Z,11.41
2023-02-19T10:22:39.316Z,11.34
2023-02-19T10:23:26.940Z,11.44
2023-02-19T10:24:40.259Z,11.35
2023-02-19T10:25:27.768Z,11.47
2023-02-19T10:26:14.979Z,11.32
2023-02-19T10:27:02.080Z,11.48
2023-02-19T10:27:49.734Z,11.55
2023-02-19T10:28:37.192Z,11.61
2023-02-19T10:29:25.290Z,11.57
2023-02-19T10:30:24.962Z,11.74
2023-02-19T10:31:24.853Z,11.78
2023-02-19T10:32:21.960Z,11.80
2023-02-19T10:33:14.317Z,11.74
2023-02-19T10:34:02.336Z,11.91
2023-02-19T10:34:49.801Z,12.00
2023-02-19T10:35:39.700Z,11.98
2023-02-19T10:36:32.090Z,12.06
2023-02-19T10:37:19.460Z,11.98
2023-02-19T10:38:09.421Z,11.97
2023-02-19T10:38:56.920Z,11.99
2023-02-19T10:39:48.032Z,11.94
2023-02-19T10:40:35.212Z,11.93
2023-02-19T10:41:25.060Z,11.82
2023-02-19T10:42:17.349Z,11.81
2023-02-19T10:43:05.691Z,11.90
2023-02-19T10:44:27.699Z,11.98
2023-02-19T10:45:21.829Z,11.99
2023-02-19T10:46:17.590Z,11.76
2023-02-19T10:47:04.839Z,11.66
2023-02-19T10:47:52.098Z,11.84
2023-02-19T10:48:43.382Z,11.84
2023-02-19T10:49:40.020Z,11.88
2023-02-19T10:50:33.204Z,12.03
2023-02-19T10:51:25.682Z,12.17
2023-02-19T10:52:20.630Z,11.83
2023-02-19T10:53:23.441Z,11.79
2023-02-19T10:54:26.101Z,11.57
2023-02-19T10:55:36.747Z,11.67